createdAt,value
2022-09-03T00:00:55.840Z,101478.94
2022-09-03T00:03:28.328Z,101474.19
2022-09-03T00:06:07.061Z,101483.50
2022-09-03T00:08:40.875Z,101485.81
2022-09-03T00:11:14.756Z,101476.19
2022-09-03T00:13:46.398Z,101470.75
2022-09-03T00:16:17.692Z,101476.38
2022-09-03T00:18:49.803Z,101478.06
2022-09-03T00:21:20.811Z,101482.13
2022-09-03T00:23:50.205Z,101482.16
2022-09-03T00:26:25.710Z,101485.28
2022-09-03T00:28:59.856Z,101482.03
2022-09-03T00:31:31.336Z,101472.22
2022-09-03T00:34:03.398Z,101482.34
2022-09-03T00:36:35.774Z,101475.28
2022-09-03T00:39:03.797Z,101478.78
2022-09-03T00:41:38.720Z,101479.97
2022-09-03T00:44:31.419Z,101476.91
2022-09-03T00:47:02.020Z,101477.53
2022-09-03T00:49:38.726Z,101481.94
2022-09-03T00:52:15.017Z,101483.50
2022-09-03T00:54:47.981Z,101478.97
2022-09-03T00:57:26.417Z,101485.09
2022-09-03T01:00:01.072Z,101475.44
2022-09-03T01:02:35.334Z,101469.78
2022-09-03T01:05:09.551Z,101469.78
2022-09-03T01:07:43.024Z,101474.44
2022-09-03T01:10:19.149Z,101467.25
2022-09-03T01:12:54.454Z,101473.09
2022-09-03T01:15:28.278Z,101461.06
2022-09-03T01:18:04.189Z,101461.53
2022-09-03T01:20:39.799Z,101462.78
2022-09-03T01:23:39.679Z,101457.00
2022-09-03T01:26:29.558Z,101460.91
2022-09-03T01:29:05.700Z,101459.16
2022-09-03T01:31:37.216Z,101448.44
2022-09-03T01:34:14.606Z,101460.78
2022-09-03T01:36:47.961Z,101459.25
2022-09-03T01:39:22.507Z,101458.31
2022-09-03T01:42:20.434Z,101459.34
2022-09-03T01:45:01.902Z,101454.91
2022-09-03T01:47:38.192Z,101459.66
2022-09-03T01:50:09.196Z,101463.75
2022-09-03T01:52:45.656Z,101458.22
2022-09-03T01:55:25.632Z,101459.38
2022-09-03T01:57:57.208Z,101453.91
2022-09-03T02:00:28.102Z,101463.91
2022-09-03T02:02:56.122Z,101459.22
2022-09-03T02:05:25.792Z,101457.34
2022-09-03T02:07:58.470Z,101456.81
2022-09-03T02:10:31.455Z,101461.50
2022-09-03T02:13:02.320Z,101457.22
2022-09-03T02:15:34.661Z,101457.34
2022-09-03T02:18:05.443Z,101462.38
2022-09-03T02:20:33.751Z,101457.91
2022-09-03T02:23:01.888Z,101462.00
2022-09-03T02:25:33.372Z,101465.22
2022-09-03T02:28:01.958Z,101462.56
2022-09-03T02:30:31.433Z,101463.34
2022-09-03T02:33:00.297Z,101460.34
2022-09-03T02:35:28.356Z,101454.63
2022-09-03T02:37:56.759Z,101463.44
2022-09-03T02:40:24.717Z,101458.19
2022-09-03T02:42:53.287Z,101467.66
2022-09-03T02:45:26.247Z,101461.81
2022-09-03T02:47:57.600Z,101461.34
2022-09-03T02:50:26.128Z,101462.63
2022-09-03T02:52:54.364Z,101460.00
2022-09-03T02:55:22.621Z,101460.41
2022-09-03T02:57:50.611Z,101453.13
2022-09-03T03:00:19.074Z,101457.09
2022-09-03T03:02:47.103Z,101459.41
2022-09-03T03:05:21.303Z,101464.13
2022-09-03T03:07:49.410Z,101458.38
2022-09-03T03:10:17.577Z,101467.09
2022-09-03T03:12:45.535Z,101458.50
2022-09-03T03:15:13.489Z,101465.75
2022-09-03T03:17:41.428Z,101462.53
2022-09-03T03:20:10.599Z,101468.06
2022-09-03T03:22:39.922Z,101469.50
2022-09-03T03:25:09.814Z,101464.03
2022-09-03T03:27:42.314Z,101469.09
2022-09-03T03:30:11.489Z,101464.84
2022-09-03T03:32:39.961Z,101467.31
2022-09-03T03:35:08.798Z,101466.03
2022-09-03T03:37:36.823Z,101466.03
2022-09-03T03:40:07.576Z,101471.78
2022-09-03T03:42:35.749Z,101473.66
2022-09-03T03:45:03.768Z,101478.69
2022-09-03T03:47:32.270Z,101472.50
2022-09-03T03:50:00.270Z,101481.84
2022-09-03T03:52:28.501Z,101479.00
2022-09-03T03:54:56.626Z,101479.28
2022-09-03T03:57:26.121Z,101474.81
2022-09-03T03:59:54.080Z,101478.25
2022-09-03T04:02:22.100Z,101476.78
2022-09-03T04:04:50.103Z,101478.09
2022-09-03T04:07:18.039Z,101478.56
2022-09-03T04:09:45.984Z,101477.84
2022-09-03T04:12:13.922Z,101483.31
2022-09-03T04:14:43.218Z,101483.03
2022-09-03T04:17:11.183Z,101475.81
2022-09-03T04:19:39.298Z,101481.31
2022-09-03T04:22:07.257Z,101487.03
2022-09-03T04:24:35.871Z,101482.59
2022-09-03T04:27:04.159Z,101478.13
2022-09-03T04:29:32.088Z,101482.28
2022-09-03T04:32:19.912Z,101475.41
2022-09-03T04:34:47.857Z,101474.28
2022-09-03T04:37:16.581Z,101465.22
2022-09-03T04:39:45.001Z,101472.97
2022-09-03T04:42:12.994Z,101471.84
2022-09-03T04:44:41.298Z,101475.81
2022-09-03T04:47:10.647Z,101478.56
2022-09-03T04:49:38.766Z,101473.69
2022-09-03T04:52:06.776Z,101484.47
2022-09-03T04:54:34.756Z,101484.59
2022-09-03T04:57:02.745Z,101483.88
2022-09-03T04:59:30.682Z,101478.72
2022-09-03T05:01:58.680Z,101481.59
2022-09-03T05:04:28.029Z,101480.88
2022-09-03T05:06:55.951Z,101490.34
2022-09-03T05:09:23.918Z,101474.56
2022-09-03T05:11:51.866Z,101487.47
2022-09-03T05:14:19.819Z,101485.75
2022-09-03T05:16:53.091Z,101480.84
2022-09-03T05:19:22.326Z,101487.25
2022-09-03T05:21:51.643Z,101478.56
2022-09-03T05:24:19.620Z,101480.03
2022-09-03T05:26:48.922Z,101478.41
2022-09-03T05:29:17.141Z,101483.00
2022-09-03T05:31:45.171Z,101480.44
2022-09-03T05:34:16.671Z,101486.16
2022-09-03T05:36:49.159Z,101480.69
2022-09-03T05:39:18.504Z,101493.31
2022-09-03T05:41:46.488Z,101486.44
2022-09-03T05:44:14.655Z,101491.25
2022-09-03T05:46:42.598Z,101483.16
2022-09-03T05:49:11.724Z,101486.03
2022-09-03T05:51:40.610Z,101484.84
2022-09-03T05:54:09.329Z,101480.00
2022-09-03T05:56:41.328Z,101477.56
2022-09-03T05:59:11.157Z,101484.31
2022-09-03T06:01:40.941Z,101483.91
2022-09-03T06:04:14.907Z,101485.88
2022-09-03T06:06:44.803Z,101488.47
2022-09-03T06:09:13.791Z,101476.13
2022-09-03T06:11:43.211Z,101486.44
2022-09-03T06:14:13.281Z,101479.25
2022-09-03T06:16:42.385Z,101481.03
2022-09-03T06:19:11.303Z,101481.09
2022-09-03T06:21:40.587Z,101482.38
2022-09-03T06:24:08.763Z,101479.50
2022-09-03T06:26:37.434Z,101485.09
2022-09-03T06:29:08.246Z,101483.50
2022-09-03T06:31:36.896Z,101490.81
2022-09-03T06:34:06.034Z,101483.66
2022-09-03T06:36:34.573Z,101485.53
2022-09-03T06:39:02.700Z,101479.97
2022-09-03T06:41:33.167Z,101477.50
2022-09-03T06:44:03.482Z,101482.09
2022-09-03T06:46:35.143Z,101477.34
2022-09-03T06:49:03.461Z,101483.56
2022-09-03T06:51:33.061Z,101478.81
2022-09-03T06:54:02.126Z,101489.94
2022-09-03T06:56:41.416Z,101489.09
2022-09-03T06:59:11.015Z,101483.44
2022-09-03T07:01:44.243Z,101484.56
2022-09-03T07:04:13.614Z,101481.34
2022-09-03T07:06:43.013Z,101490.19
2022-09-03T07:09:12.733Z,101484.31
2022-09-03T07:11:47.479Z,101479.84
2022-09-03T07:14:16.753Z,101484.63
2022-09-03T07:16:46.502Z,101478.34
2022-09-03T07:19:14.849Z,101483.78
2022-09-03T07:21:48.351Z,101488.00
2022-09-03T07:24:18.226Z,101483.91
2022-09-03T07:26:47.098Z,101477.72
2022-09-03T07:29:16.252Z,101481.84
2022-09-03T07:31:45.621Z,101490.16
2022-09-03T07:34:16.468Z,101479.25
2022-09-03T07:36:48.755Z,101480.91
2022-09-03T07:39:18.043Z,101483.41
2022-09-03T07:41:46.913Z,101488.69
2022-09-03T07:44:16.314Z,101480.38
2022-09-03T07:46:47.824Z,101483.94
2022-09-03T07:49:16.180Z,101472.31
2022-09-03T07:51:46.548Z,101479.94
2022-09-03T07:54:14.624Z,101479.75
2022-09-03T07:56:42.765Z,101479.38
2022-09-03T07:59:12.112Z,101480.34
2022-09-03T08:01:41.461Z,101476.53
2022-09-03T08:04:11.823Z,101484.13
2022-09-03T08:06:40.406Z,101478.00
2022-09-03T08:09:11.515Z,101475.25
2022-09-03T08:11:41.006Z,101472.84
2022-09-03T08:14:10.535Z,101465.84
2022-09-03T08:16:40.068Z,101469.25
2022-09-03T08:19:13.362Z,101472.50
2022-09-03T08:21:42.714Z,101476.44
2022-09-03T08:24:11.715Z,101473.34
2022-09-03T08:26:41.753Z,101477.31
2022-09-03T08:29:10.507Z,101474.03
2022-09-03T08:31:39.085Z,101475.25
2022-09-03T08:34:08.731Z,101471.81
2022-09-03T08:36:39.387Z,101470.75
2022-09-03T08:39:10.343Z,101472.81
2022-09-03T08:41:57.994Z,101471.94
2022-09-03T08:44:29.180Z,101468.81
2022-09-03T08:47:01.193Z,101461.22
2022-09-03T08:49:33.875Z,101462.34
2022-09-03T08:52:06.122Z,101460.94
2022-09-03T08:54:34.373Z,101463.28
2022-09-03T08:57:04.115Z,101459.25
2022-09-03T08:59:32.800Z,101476.38
2022-09-03T09:02:10.529Z,101474.69
2022-09-03T09:04:49.145Z,101465.75
2022-09-03T09:07:23.344Z,101475.88
2022-09-03T09:09:55.641Z,101465.13
2022-09-03T09:12:42.526Z,101462.75
2022-09-03T09:15:21.232Z,101464.72
2022-09-03T09:18:02.533Z,101464.59
2022-09-03T09:20:35.210Z,101456.72
2022-09-03T09:23:06.741Z,101462.16
2022-09-03T09:25:41.822Z,101467.88
2022-09-03T09:28:15.239Z,101459.63
2022-09-03T09:30:43.660Z,101463.53
2022-09-03T09:33:11.770Z,101459.09
2022-09-03T09:35:42.403Z,101464.22
2022-09-03T09:38:16.341Z,101457.00
2022-09-03T09:40:46.224Z,101459.56
2022-09-03T09:43:16.138Z,101452.28
2022-09-03T09:45:45.918Z,101452.38
2022-09-03T09:48:26.424Z,101448.19
2022-09-03T09:51:06.367Z,101445.13
2022-09-03T09:53:36.400Z,101440.94
2022-09-03T09:56:05.084Z,101435.84
2022-09-03T09:58:34.548Z,101433.03
2022-09-03T10:01:05.329Z,101439.03
2022-09-03T10:03:35.633Z,101438.69
2022-09-03T10:06:26.919Z,101436.06
2022-09-03T10:09:08.204Z,101426.22
2022-09-03T10:11:40.374Z,101424.06
2022-09-03T10:14:12.834Z,101437.16
2022-09-03T10:16:49.008Z,101429.13
2022-09-03T10:19:22.412Z,101434.84
2022-09-03T10:21:56.629Z,101436.75
2022-09-03T10:24:39.499Z,101431.84
2022-09-03T10:27:11.340Z,101425.81
2022-09-03T10:29:40.779Z,101434.28
2022-09-03T10:32:24.157Z,101420.19
2022-09-03T10:35:03.861Z,101410.84
2022-09-03T10:37:41.117Z,101416.63
2022-09-03T10:40:31.154Z,101410.69
2022-09-03T10:43:12.236Z,101412.88
2022-09-03T10:45:45.637Z,101396.69
2022-09-03T10:48:40.266Z,101405.63
2022-09-03T10:51:14.289Z,101408.47
2022-09-03T10:53:53.563Z,101414.31
2022-09-03T10:56:26.636Z,101406.34
2022-09-03T10:59:18.405Z,101390.56
2022-09-03T11:01:54.026Z,101397.19
2022-09-03T11:04:29.020Z,101388.47
2022-09-03T11:07:02.256Z,101391.28
2022-09-03T11:09:35.006Z,101390.28
2022-09-03T11:12:07.672Z,101387.75
2022-09-03T11:14:38.939Z,101393.25
2022-09-03T11:17:11.675Z,101387.09
2022-09-03T11:19:48.297Z,101393.59
2022-09-03T11:22:20.785Z,101394.94
2022-09-03T11:24:58.657Z,101400.91
2022-09-03T11:27:35.307Z,101390.75
2022-09-03T11:30:07.230Z,101387.56
2022-09-03T11:32:48.691Z,101378.19
2022-09-03T11:35:27.957Z,101376.09
2022-09-03T11:38:00.381Z,101380.69
2022-09-03T11:40:33.922Z,101377.09
2022-09-03T11:43:13.986Z,101366.13
2022-09-03T11:45:42.311Z,101368.13
2022-09-03T11:48:30.662Z,101363.81
2022-09-03T11:50:59.043Z,101374.25
2022-09-03T11:53:30.210Z,101369.38
2022-09-03T11:56:02.241Z,101369.56
2022-09-03T11:58:32.948Z,101366.94
2022-09-03T12:01:02.776Z,101361.28
2022-09-03T12:03:39.776Z,101359.03
2022-09-03T12:06:33.419Z,101365.03
2022-09-03T12:09:17.548Z,101359.91
2022-09-03T12:11:54.472Z,101354.19
2022-09-03T12:14:29.330Z,101359.47
2022-09-03T12:17:15.993Z,101368.97
2022-09-03T12:19:49.017Z,101362.59
2022-09-03T12:22:18.224Z,101350.84
2022-09-03T12:24:46.375Z,101360.63
2022-09-03T12:27:24.756Z,101358.28
2022-09-03T12:30:00.059Z,101355.56
2022-09-03T12:32:32.299Z,101355.78
2022-09-03T12:35:11.094Z,101361.69
2022-09-03T12:40:29.879Z,101344.44
2022-09-03T12:46:11.243Z,101341.34
2022-09-03T12:48:43.531Z,101339.63
2022-09-03T12:54:00.971Z,101344.28
2022-09-03T12:56:33.310Z,101345.78
2022-09-03T12:59:04.265Z,101349.41
2022-09-03T13:01:36.650Z,101335.63
2022-09-03T13:04:08.017Z,101332.75
2022-09-03T13:06:47.124Z,101330.69
2022-09-03T13:09:15.905Z,101327.72
2022-09-03T13:11:45.272Z,101322.03
2022-09-03T13:14:14.412Z,101328.06
2022-09-03T13:16:58.529Z,101338.22
2022-09-03T13:19:32.159Z,101334.56
2022-09-03T13:22:08.459Z,101330.78
2022-09-03T13:24:47.755Z,101343.63
2022-09-03T13:27:21.739Z,101327.63
2022-09-03T13:30:03.055Z,101324.50
2022-09-03T13:32:40.740Z,101329.28
2022-09-03T13:35:13.079Z,101327.75
2022-09-03T13:37:44.452Z,101326.34
2022-09-03T13:40:17.754Z,101322.22
2022-09-03T13:42:54.438Z,101325.53
2022-09-03T13:45:31.614Z,101315.97
2022-09-03T13:48:24.150Z,101318.81
2022-09-03T13:50:59.566Z,101318.69
2022-09-03T13:53:37.326Z,101307.13
2022-09-03T13:56:10.209Z,101315.75
2022-09-03T13:58:44.980Z,101325.97
2022-09-03T14:01:20.364Z,101321.78
2022-09-03T14:03:51.757Z,101314.19
2022-09-03T14:06:27.605Z,101312.84
2022-09-03T14:09:13.412Z,101313.34
2022-09-03T14:11:50.697Z,101309.78
2022-09-03T14:14:25.518Z,101308.00
2022-09-03T14:16:58.117Z,101314.06
2022-09-03T14:19:36.326Z,101306.28
2022-09-03T14:22:09.668Z,101308.59
2022-09-03T14:24:45.171Z,101308.72
2022-09-03T14:27:13.220Z,101303.03
2022-09-03T14:29:52.541Z,101301.22
2022-09-03T14:32:28.553Z,101291.59
2022-09-03T14:35:30.171Z,101296.91
2022-09-03T14:38:26.142Z,101304.50
2022-09-03T14:40:59.516Z,101297.09
2022-09-03T14:43:53.477Z,101289.53
2022-09-03T14:46:33.541Z,101295.06
2022-09-03T14:49:19.131Z,101298.56
2022-09-03T14:52:01.352Z,101299.25
2022-09-03T14:54:52.123Z,101301.94
2022-09-03T14:57:33.610Z,101291.78
2022-09-03T15:00:08.056Z,101283.09
2022-09-03T15:02:55.819Z,101296.00
2022-09-03T15:05:38.845Z,101286.09
2022-09-03T15:08:11.804Z,101287.75
2022-09-03T15:10:47.142Z,101292.94
2022-09-03T15:13:19.963Z,101286.13
2022-09-03T15:16:01.551Z,101293.63
2022-09-03T15:18:34.464Z,101290.09
2022-09-03T15:21:08.255Z,101289.03
2022-09-03T15:23:55.475Z,101301.44
2022-09-03T15:26:35.635Z,101295.34
2022-09-03T15:29:18.700Z,101295.88
2022-09-03T15:31:51.888Z,101301.75
2022-09-03T15:34:41.535Z,101293.66
2022-09-03T15:37:13.620Z,101293.00
2022-09-03T15:39:44.523Z,101300.72
2022-09-03T15:42:19.603Z,101303.41
2022-09-03T15:44:52.664Z,101300.72
2022-09-03T15:47:37.619Z,101306.06
2022-09-03T15:50:28.848Z,101302.00
2022-09-03T15:53:00.343Z,101295.28
2022-09-03T15:55:34.135Z,101294.19
2022-09-03T15:58:10.785Z,101292.47
2022-09-03T16:01:00.113Z,101298.81
2022-09-03T16:03:44.647Z,101294.94
2022-09-03T16:06:21.914Z,101294.69
2022-09-03T16:08:54.200Z,101305.63
2022-09-03T16:11:33.658Z,101308.09
2022-09-03T16:14:08.429Z,101300.63
2022-09-03T16:16:49.290Z,101304.78
2022-09-03T16:19:21.278Z,101303.13
2022-09-03T16:21:56.326Z,101306.63
2022-09-03T16:24:27.545Z,101298.91
2022-09-03T16:26:57.886Z,101308.84
2022-09-03T16:29:31.986Z,101301.59
2022-09-03T16:32:12.674Z,101297.94
2022-09-03T16:34:50.287Z,101301.50
2022-09-03T16:37:23.978Z,101306.06
2022-09-03T16:39:58.948Z,101297.91
2022-09-03T16:42:30.664Z,101301.94
2022-09-03T16:45:14.795Z,101295.88
2022-09-03T16:48:01.334Z,101309.09
2022-09-03T16:50:41.856Z,101306.31
2022-09-03T16:53:15.778Z,101305.94
2022-09-03T16:56:04.454Z,101314.16
2022-09-03T16:58:38.525Z,101314.28
2022-09-03T17:01:18.396Z,101311.63
2022-09-03T17:04:01.981Z,101312.06
2022-09-03T17:06:54.429Z,101313.72
2022-09-03T17:09:32.501Z,101315.97
2022-09-03T17:12:05.476Z,101313.69
2022-09-03T17:15:00.721Z,101310.78
2022-09-03T17:17:50.925Z,101316.50
2022-09-03T17:20:22.520Z,101312.88
2022-09-03T17:23:01.514Z,101319.91
2022-09-03T17:25:35.634Z,101318.56
2022-09-03T17:28:22.685Z,101322.69
2022-09-03T17:30:58.115Z,101327.50
2022-09-03T17:33:44.869Z,101320.06
2022-09-03T17:36:14.638Z,101328.38
2022-09-03T17:39:09.967Z,101334.78
2022-09-03T17:41:43.873Z,101344.66
2022-09-03T17:44:18.717Z,101343.81
2022-09-03T17:46:50.392Z,101350.25
2022-09-03T17:49:23.262Z,101343.53
2022-09-03T17:51:54.844Z,101351.25
2022-09-03T17:54:33.322Z,101351.22
2022-09-03T17:57:04.947Z,101351.09
2022-09-03T17:59:37.834Z,101362.31
2022-09-03T18:02:11.621Z,101368.06
2022-09-03T18:04:48.044Z,101371.56
2022-09-03T18:07:24.095Z,101375.72
2022-09-03T18:10:00.641Z,101379.44
2022-09-03T18:12:34.796Z,101379.50
2022-09-03T18:15:09.214Z,101381.03
2022-09-03T18:17:42.967Z,101391.84
2022-09-03T18:20:33.060Z,101380.50
2022-09-03T18:23:22.912Z,101396.66
2022-09-03T18:26:13.088Z,101395.72
2022-09-03T18:29:03.425Z,101399.47
2022-09-03T18:31:48.993Z,101403.56
2022-09-03T18:34:35.077Z,101405.81
2022-09-03T18:37:22.082Z,101406.34
2022-09-03T18:40:07.344Z,101410.47
2022-09-03T18:43:03.186Z,101420.50
2022-09-03T18:46:38.584Z,101412.69
2022-09-03T18:49:08.651Z,101422.19
2022-09-03T18:52:01.282Z,101428.78
2022-09-03T18:55:07.396Z,101423.94
2022-09-03T18:58:02.765Z,101429.16
2022-09-03T19:00:49.269Z,101426.59
2022-09-03T19:03:55.469Z,101434.28
2022-09-03T19:06:46.548Z,101425.91
2022-09-03T19:09:38.622Z,101427.13
2022-09-03T19:12:34.099Z,101434.59
2022-09-03T19:15:24.969Z,101438.78
2022-09-03T19:18:24.276Z,101437.47
2022-09-03T19:21:17.601Z,101441.53
2022-09-03T19:24:02.791Z,101431.28
2022-09-03T19:26:58.933Z,101440.56
2022-09-03T19:30:02.790Z,101444.19
2022-09-03T19:32:53.991Z,101450.28
2022-09-03T19:35:42.376Z,101452.06
2022-09-03T19:38:34.747Z,101440.94
2022-09-03T19:41:27.388Z,101448.41
2022-09-03T19:44:21.469Z,101452.94
2022-09-03T19:47:09.434Z,101450.19
2022-09-03T19:50:03.348Z,101456.59
2022-09-03T19:52:53.211Z,101454.88
2022-09-03T19:55:41.895Z,101450.81
2022-09-03T19:58:42.638Z,101452.19
2022-09-03T20:01:29.253Z,101456.41
2022-09-03T20:04:19.189Z,101459.97
2022-09-03T20:07:05.304Z,101469.25
2022-09-03T20:09:55.325Z,101464.38
2022-09-03T20:12:26.062Z,101469.56
2022-09-03T20:14:54.065Z,101470.22
2022-09-03T20:17:32.147Z,101482.91
2022-09-03T20:20:08.839Z,101471.25
2022-09-03T20:22:42.740Z,101478.66
2022-09-03T20:25:27.211Z,101478.50
2022-09-03T20:28:04.299Z,101484.19
2022-09-03T20:30:35.962Z,101483.81
2022-09-03T20:33:33.254Z,101482.47
2022-09-03T20:36:10.518Z,101483.47
2022-09-03T20:38:56.473Z,101475.78
2022-09-03T20:41:29.486Z,101486.22
2022-09-03T20:44:11.901Z,101492.41
2022-09-03T20:46:51.819Z,101491.38
2022-09-03T20:49:25.414Z,101487.78
2022-09-03T20:51:58.884Z,101488.63
2022-09-03T20:54:32.184Z,101487.28
2022-09-03T20:57:19.749Z,101486.38
2022-09-03T21:00:00.193Z,101484.69
2022-09-03T21:02:35.208Z,101486.06
2022-09-03T21:05:09.663Z,101482.56
2022-09-03T21:07:49.356Z,101478.50
2022-09-03T21:10:22.064Z,101483.97
2022-09-03T21:12:57.237Z,101487.59
2022-09-03T21:15:31.794Z,101486.06
2022-09-03T21:18:06.181Z,101493.94
2022-09-03T21:20:39.247Z,101497.69
2022-09-03T21:23:15.322Z,101499.47
2022-09-03T21:25:46.278Z,101493.97
2022-09-03T21:28:16.991Z,101503.31
2022-09-03T21:30:49.568Z,101511.41
2022-09-03T21:33:21.365Z,101504.22
2022-09-03T21:35:52.847Z,101510.44
2022-09-03T21:38:23.721Z,101506.41
2022-09-03T21:40:56.410Z,101508.34
2022-09-03T21:43:26.481Z,101520.69
2022-09-03T21:46:03.191Z,101527.34
2022-09-03T21:48:35.744Z,101525.47
2022-09-03T21:51:07.743Z,101524.06
2022-09-03T21:53:43.235Z,101523.91
2022-09-03T21:56:40.657Z,101533.63
2022-09-03T21:59:16.287Z,101528.56
2022-09-03T22:01:53.193Z,101528.34
2022-09-03T22:04:21.177Z,101529.81
2022-09-03T22:06:52.966Z,101538.13
2022-09-03T22:09:26.393Z,101528.91
2022-09-03T22:12:00.639Z,101532.16
2022-09-03T22:14:33.874Z,101524.88
2022-09-03T22:17:08.927Z,101522.56
2022-09-03T22:19:37.649Z,101525.38
2022-09-03T22:22:10.801Z,101526.66
2022-09-03T22:24:44.265Z,101531.50
2022-09-03T22:27:19.463Z,101535.44
2022-09-03T22:29:53.144Z,101530.78
2022-09-03T22:32:33.641Z,101529.09
2022-09-03T22:35:26.001Z,101533.53
2022-09-03T22:38:04.175Z,101542.09
2022-09-03T22:40:39.973Z,101530.03
2022-09-03T22:43:23.106Z,101540.09
2022-09-03T22:46:11.683Z,101536.94
2022-09-03T22:48:55.187Z,101535.53
2022-09-03T22:51:23.169Z,101540.56
2022-09-03T22:54:10.246Z,101540.25
2022-09-03T22:56:41.958Z,101536.09
2022-09-03T22:59:14.307Z,101531.41
2022-09-03T23:01:46.143Z,101532.53
2022-09-03T23:04:17.821Z,101535.09
2022-09-03T23:06:53.396Z,101539.50
2022-09-03T23:09:24.216Z,101537.13
2022-09-03T23:11:56.696Z,101536.59
2022-09-03T23:14:28.707Z,101541.75
2022-09-03T23:16:59.253Z,101545.81
2022-09-03T23:19:41.084Z,101544.31
2022-09-03T23:22:12.394Z,101539.38
2022-09-03T23:24:43.259Z,101538.78
2022-09-03T23:27:16.302Z,101541.66
2022-09-03T23:29:47.949Z,101543.94
2022-09-03T23:32:16.065Z,101550.69
2022-09-03T23:34:43.989Z,101556.41
2022-09-03T23:37:39.550Z,101535.56
2022-09-03T23:40:26.212Z,101544.56
2022-09-03T23:43:28.678Z,101540.72
2022-09-03T23:46:01.564Z,101550.09
2022-09-03T23:48:39.591Z,101551.56
2022-09-03T23:51:13.828Z,101550.88
2022-09-03T23:53:48.493Z,101550.47
2022-09-03T23:56:51.485Z,101545.06
2022-09-03T23:59:28.535Z,101546.78
